createdAt,value
2022-11-12T11:40:56.717Z,8.88
2022-11-12T11:41:56.509Z,8.87
2022-11-12T11:42:56.419Z,8.93
2022-11-12T11:43:56.375Z,8.84
2022-11-12T11:44:56.237Z,8.84
2022-11-12T11:45:56.310Z,8.91
2022-11-12T11:46:56.070Z,8.88
2022-11-12T11:48:02.512Z,8.87
2022-11-12T11:48:55.884Z,8.94
2022-11-12T11:49:55.803Z,8.87
2022-11-12T11:50:55.729Z,8.98
2022-11-12T11:51:55.611Z,8.88
2022-11-12T11:52:55.526Z,8.80
2022-11-12T11:53:55.445Z,8.88
2022-11-12T11:54:55.361Z,8.87
2022-11-12T11:55:55.278Z,8.84
2022-11-12T11:56:55.310Z,8.88
2022-11-12T11:57:55.115Z,8.90
2022-11-12T11:58:55.029Z,8.85
2022-11-12T11:59:54.950Z,8.88
2022-11-12T12:00:54.867Z,8.97
2022-11-12T12:01:54.790Z,8.97
2022-11-12T12:02:54.710Z,9.03
2022-11-12T12:03:54.673Z,9.19
2022-11-12T12:04:54.544Z,9.25
2022-11-12T12:05:54.464Z,9.22
2022-11-12T12:06:54.441Z,9.25
2022-11-12T12:07:54.306Z,9.25
2022-11-12T12:08:54.377Z,9.16
2022-11-12T12:09:54.143Z,9.19
2022-11-12T12:11:07.705Z,9.13
2022-11-12T12:11:53.984Z,8.93
2022-11-12T12:12:54.021Z,8.95
2022-11-12T12:13:53.825Z,9.00
2022-11-12T12:14:53.744Z,9.13
2022-11-12T12:15:53.666Z,9.20
2022-11-12T12:16:53.586Z,9.25
2022-11-12T12:17:53.509Z,9.27
2022-11-12T12:18:53.426Z,9.45
2022-11-12T12:19:53.348Z,9.38
2022-11-12T12:20:53.268Z,9.38
2022-11-12T12:21:53.191Z,9.43
2022-11-12T12:22:53.112Z,9.43
2022-11-12T12:23:53.033Z,9.61
2022-11-12T12:24:52.957Z,9.58
2022-11-12T12:25:57.407Z,9.70
2022-11-12T12:26:52.798Z,9.72
2022-11-12T12:27:52.725Z,9.70
2022-11-12T12:28:52.752Z,9.75
2022-11-12T12:29:52.563Z,9.72
2022-11-12T12:30:52.495Z,9.64
2022-11-12T12:31:52.406Z,9.67
2022-11-12T12:32:52.327Z,9.63
2022-11-12T12:33:52.252Z,9.74
2022-11-12T12:34:52.169Z,9.58
2022-11-12T12:35:52.092Z,9.60
2022-11-12T12:36:52.014Z,9.60
2022-11-12T12:37:51.936Z,9.56
2022-11-12T12:38:51.892Z,9.65
2022-11-12T12:39:51.792Z,9.67
2022-11-12T12:40:51.738Z,9.71
2022-11-12T12:41:51.655Z,9.70
2022-11-12T12:42:51.545Z,9.58
2022-11-12T12:43:51.504Z,9.68
2022-11-12T12:44:51.539Z,9.61
2022-11-12T12:45:51.310Z,9.71
2022-11-12T12:46:51.234Z,9.74
2022-11-12T12:47:51.155Z,9.83
2022-11-12T12:48:51.085Z,9.71
2022-11-12T12:49:51.003Z,9.79
2022-11-12T12:50:50.923Z,9.78
2022-11-12T12:51:55.593Z,9.78
2022-11-12T12:52:50.762Z,9.88
2022-11-12T12:53:50.687Z,9.98
2022-11-12T12:54:50.606Z,9.97
2022-11-12T12:55:50.529Z,9.82
2022-11-12T12:56:50.450Z,9.82
2022-11-12T12:57:50.375Z,9.86
2022-11-12T12:58:50.296Z,9.80
2022-11-12T12:59:50.219Z,9.86
2022-11-12T13:00:50.299Z,9.80
2022-11-12T13:01:50.062Z,9.89
2022-11-12T13:02:49.984Z,9.93
2022-11-12T13:03:49.906Z,9.85
2022-11-12T13:04:49.826Z,9.82
2022-11-12T13:05:49.749Z,9.82
2022-11-12T13:06:49.732Z,9.90
2022-11-12T13:07:49.597Z,9.75
2022-11-12T13:08:49.514Z,9.55
2022-11-12T13:09:49.438Z,9.75
2022-11-12T13:10:49.357Z,9.75
2022-11-12T13:11:49.281Z,9.79
2022-11-12T13:12:49.202Z,9.82
2022-11-12T13:13:49.125Z,9.83
2022-11-12T13:14:49.143Z,9.93
2022-11-12T13:15:48.968Z,9.93
2022-11-12T13:16:48.997Z,9.97
2022-11-12T13:17:48.814Z,9.96
2022-11-12T13:18:48.733Z,9.98
2022-11-12T13:19:48.663Z,10.03
2022-11-12T13:20:48.577Z,10.11
2022-11-12T13:21:48.500Z,10.10
2022-11-12T13:22:48.418Z,10.01
2022-11-12T13:23:48.344Z,9.97
2022-11-12T13:24:48.266Z,10.06
2022-11-12T13:25:48.191Z,10.00
2022-11-12T13:26:48.105Z,9.96
2022-11-12T13:27:48.029Z,10.08
2022-11-12T13:28:47.952Z,10.19
2022-11-12T13:29:47.899Z,10.10
2022-11-12T13:30:47.794Z,10.21
2022-11-12T13:31:47.718Z,10.25
2022-11-12T13:32:47.758Z,10.29
2022-11-12T13:33:47.562Z,10.31
2022-11-12T13:34:47.482Z,10.36
2022-11-12T13:35:47.404Z,10.23
2022-11-12T13:36:47.325Z,10.41
2022-11-12T13:37:47.249Z,10.34
2022-11-12T13:38:47.170Z,10.51
2022-11-12T13:39:47.094Z,10.55
2022-11-12T13:40:47.015Z,10.40
2022-11-12T13:41:46.937Z,10.33
2022-11-12T13:42:46.858Z,10.36
2022-11-12T13:43:46.782Z,10.40
2022-11-12T13:44:46.702Z,10.53
2022-11-12T13:45:46.628Z,10.43
2022-11-12T13:46:46.646Z,10.56
2022-11-12T13:47:46.470Z,10.49
2022-11-12T13:48:46.502Z,10.59
2022-11-12T13:49:46.314Z,10.59
2022-11-12T13:50:46.235Z,10.60
2022-11-12T13:51:46.258Z,10.60
2022-11-12T13:52:46.085Z,10.55
2022-11-12T13:53:46.002Z,10.59
2022-11-12T13:54:45.922Z,10.59
2022-11-12T13:55:45.845Z,10.56
2022-11-12T13:56:45.766Z,10.63
2022-11-12T13:57:45.691Z,10.71
2022-11-12T13:58:45.610Z,10.60
2022-11-12T13:59:45.534Z,10.73
2022-11-12T14:00:45.475Z,10.66
2022-11-12T14:01:45.391Z,10.71
2022-11-12T14:02:45.300Z,10.74
2022-11-12T14:03:45.225Z,10.69
2022-11-12T14:04:45.263Z,10.71
2022-11-12T14:05:45.133Z,10.67
2022-11-12T14:06:45.097Z,10.74
2022-11-12T14:07:44.911Z,10.66
2022-11-12T14:08:44.833Z,10.66
2022-11-12T14:09:44.755Z,10.66
2022-11-12T14:10:46.259Z,10.67
2022-11-12T14:11:44.599Z,10.66
2022-11-12T14:12:44.520Z,10.63
2022-11-12T14:13:44.495Z,10.74
2022-11-12T14:14:44.364Z,10.53
2022-11-12T14:15:44.288Z,10.59
2022-11-12T14:16:44.209Z,10.55
2022-11-12T14:17:44.133Z,10.62
2022-11-12T14:18:44.053Z,10.59
2022-11-12T14:19:43.975Z,10.63
2022-11-12T14:20:44.013Z,10.74
2022-11-12T14:21:43.819Z,10.66
2022-11-12T14:22:43.740Z,10.75
2022-11-12T14:23:43.661Z,10.69
2022-11-12T14:24:43.585Z,10.74
2022-11-12T14:25:43.508Z,10.83
2022-11-12T14:26:43.426Z,10.87
2022-11-12T14:27:43.349Z,10.74
2022-11-12T14:28:43.276Z,10.66
2022-11-12T14:29:43.897Z,10.73
2022-11-12T14:30:43.117Z,10.67
2022-11-12T14:31:43.039Z,10.67
2022-11-12T14:32:42.962Z,10.71
2022-11-12T14:33:42.882Z,10.67
2022-11-12T14:34:42.804Z,10.67
2022-11-12T14:35:42.727Z,10.63
2022-11-12T14:36:42.764Z,10.60
2022-11-12T14:37:43.902Z,10.66
2022-11-12T14:38:42.490Z,10.59
2022-11-12T14:39:42.414Z,10.51
2022-11-12T14:40:42.335Z,10.56
2022-11-12T14:41:42.258Z,10.44
2022-11-12T14:42:42.182Z,10.43
2022-11-12T14:43:42.101Z,10.39
2022-11-12T14:44:42.027Z,10.40
2022-11-12T14:45:41.947Z,10.34
2022-11-12T14:46:41.863Z,10.36
2022-11-12T14:47:41.792Z,10.37
2022-11-12T14:48:41.709Z,10.36
2022-11-12T14:49:44.403Z,10.29
2022-11-12T14:50:45.288Z,10.23
2022-11-12T14:51:41.480Z,10.21
2022-11-12T14:52:41.509Z,10.15
2022-11-12T14:53:41.317Z,10.11
2022-11-12T14:54:41.238Z,10.04
2022-11-12T14:55:41.161Z,10.06
2022-11-12T14:56:41.080Z,10.06
2022-11-12T14:57:41.009Z,10.03
2022-11-12T14:58:40.923Z,10.01
2022-11-12T14:59:40.848Z,10.08
2022-11-12T15:00:40.804Z,10.00
2022-11-12T15:02:55.768Z,9.96
2022-11-12T15:03:40.528Z,9.97
2022-11-12T15:04:40.449Z,9.96
2022-11-12T15:05:40.370Z,9.93
2022-11-12T15:06:40.353Z,9.96
2022-11-12T15:07:40.214Z,9.88
2022-11-12T15:08:40.247Z,9.82
2022-11-12T15:09:40.063Z,9.80
2022-11-12T15:10:39.978Z,9.82
2022-11-12T15:11:39.898Z,9.75
2022-11-12T15:12:39.816Z,9.83
2022-11-12T15:13:39.742Z,9.83
2022-11-12T15:14:39.657Z,9.80
2022-11-12T15:15:39.586Z,9.82
2022-11-12T15:16:39.502Z,9.82
2022-11-12T15:17:39.423Z,9.82
2022-11-12T15:18:39.341Z,9.79
2022-11-12T15:19:39.265Z,9.83
2022-11-12T15:20:39.184Z,9.86
2022-11-12T15:21:39.110Z,9.79
2022-11-12T15:22:39.025Z,9.86
2022-11-12T15:23:38.946Z,9.78
2022-11-12T15:24:39.068Z,9.86
2022-11-12T15:25:38.790Z,9.88
2022-11-12T15:26:38.706Z,9.80
2022-11-12T15:27:38.630Z,9.80
2022-11-12T15:28:38.549Z,9.82
2022-11-12T15:29:38.474Z,9.79
2022-11-12T15:30:38.389Z,9.86
2022-11-12T15:31:38.313Z,9.82
2022-11-12T15:32:38.231Z,9.88
2022-11-12T15:33:38.154Z,9.96
2022-11-12T15:34:38.071Z,9.96
2022-11-12T15:35:38.003Z,10.00
2022-11-12T15:36:37.913Z,9.96
2022-11-12T15:37:37.836Z,9.90
2022-11-12T15:38:37.757Z,9.90
2022-11-12T15:39:37.677Z,9.82
2022-11-12T15:40:37.913Z,9.86
2022-11-12T15:41:37.523Z,9.88
2022-11-12T15:42:37.435Z,9.78
2022-11-12T15:43:37.358Z,9.79
2022-11-12T15:44:37.279Z,9.79
2022-11-12T15:45:37.200Z,9.79
2022-11-12T15:46:37.117Z,9.70
2022-11-12T15:47:37.040Z,9.71
2022-11-12T15:48:36.957Z,9.71
2022-11-12T15:49:36.880Z,9.72
2022-11-12T15:50:36.802Z,9.72
2022-11-12T15:51:36.721Z,9.74
2022-11-12T15:52:36.644Z,9.72
2022-11-12T15:53:36.560Z,9.72
2022-11-12T15:54:40.865Z,9.82
2022-11-12T15:55:36.398Z,9.78
2022-11-12T15:56:36.437Z,9.67
2022-11-12T15:57:36.238Z,9.67
2022-11-12T15:58:36.159Z,9.71
2022-11-12T15:59:36.081Z,9.72
2022-11-12T16:00:36.123Z,9.72
2022-11-12T16:01:35.923Z,9.72
2022-11-12T16:02:35.850Z,9.58
2022-11-12T16:03:35.760Z,9.58
2022-11-12T16:04:35.682Z,9.60
2022-11-12T16:05:35.600Z,9.58
2022-11-12T16:06:35.587Z,9.56
2022-11-12T16:07:35.443Z,9.63
2022-11-12T16:08:35.362Z,9.60
2022-11-12T16:09:35.280Z,9.58
2022-11-12T16:10:35.202Z,9.56
2022-11-12T16:11:35.118Z,9.71
2022-11-12T16:12:35.159Z,9.60
2022-11-12T16:13:34.963Z,9.56
2022-11-12T16:14:34.884Z,9.61
2022-11-12T16:15:34.805Z,9.63
2022-11-12T16:16:34.722Z,9.60
2022-11-12T16:17:34.639Z,9.45
2022-11-12T16:18:34.567Z,9.42
2022-11-12T16:19:34.479Z,9.45
2022-11-12T16:20:34.403Z,9.46
2022-11-12T16:21:34.322Z,9.55
2022-11-12T16:22:34.243Z,9.55
2022-11-12T16:23:34.159Z,9.55
2022-11-12T16:24:34.085Z,9.53
2022-11-12T16:25:34.001Z,9.56
2022-11-12T16:26:33.921Z,9.46
2022-11-12T16:27:33.843Z,9.55
2022-11-12T16:28:33.874Z,9.45
2022-11-12T16:29:33.683Z,9.50
2022-11-12T16:30:33.603Z,9.47
2022-11-12T16:31:33.522Z,9.35
2022-11-12T16:32:33.440Z,9.49
2022-11-12T16:33:33.361Z,9.45
2022-11-12T16:34:33.434Z,9.40
2022-11-12T16:35:33.200Z,9.46
2022-11-12T16:36:33.122Z,9.42
2022-11-12T16:37:33.042Z,9.43
2022-11-12T16:38:32.958Z,9.34
2022-11-12T16:39:32.878Z,9.40
2022-11-12T16:40:32.799Z,9.31
2022-11-12T16:41:32.719Z,9.35
2022-11-12T16:42:32.648Z,9.31
2022-11-12T16:43:32.558Z,9.34
2022-11-12T16:44:32.499Z,9.37
2022-11-12T16:45:32.398Z,9.37
2022-11-12T16:46:32.321Z,9.40
2022-11-12T16:47:32.237Z,9.34
2022-11-12T16:48:32.158Z,9.35
2022-11-12T16:49:37.334Z,9.25
2022-11-12T16:50:31.998Z,9.25
2022-11-12T16:51:31.917Z,9.22
2022-11-12T16:52:31.840Z,9.31
2022-11-12T16:53:31.756Z,9.24
2022-11-12T16:54:31.676Z,9.24
2022-11-12T16:55:31.596Z,9.20
2022-11-12T16:56:31.519Z,9.28
2022-11-12T16:57:31.433Z,9.17
2022-11-12T16:58:31.358Z,9.19
2022-11-12T16:59:31.274Z,9.09
2022-11-12T17:00:31.306Z,9.00
2022-11-12T17:01:31.223Z,9.06
2022-11-12T17:02:31.036Z,9.05
2022-11-12T17:03:31.025Z,9.13
2022-11-12T17:04:30.874Z,9.10
2022-11-12T17:05:30.797Z,9.09
2022-11-12T17:06:30.712Z,9.10
2022-11-12T17:07:30.835Z,9.16
2022-11-12T17:08:33.931Z,9.19
2022-11-12T17:09:30.470Z,9.20
2022-11-12T17:10:30.490Z,9.14
2022-11-12T17:11:30.309Z,9.13
2022-11-12T17:12:30.233Z,9.10
2022-11-12T17:13:30.470Z,9.06
2022-11-12T17:14:30.069Z,9.06
2022-11-12T17:15:30.191Z,9.06
2022-11-12T17:16:30.031Z,9.06
2022-11-12T17:17:29.828Z,9.03
2022-11-12T17:18:29.749Z,8.94
2022-11-12T17:19:29.670Z,8.94
2022-11-12T17:20:29.588Z,9.02
2022-11-12T17:21:29.509Z,8.93
2022-11-12T17:22:29.425Z,8.98
2022-11-12T17:23:29.706Z,8.93
2022-11-12T17:24:29.267Z,8.87
2022-11-12T17:25:29.187Z,8.93
2022-11-12T17:26:29.107Z,8.85
2022-11-12T17:27:29.024Z,8.91
2022-11-12T17:28:28.946Z,8.90
2022-11-12T17:29:28.864Z,8.93
2022-11-12T17:30:28.785Z,8.97
2022-11-12T17:31:28.701Z,8.97
2022-11-12T17:32:28.738Z,8.93
2022-11-12T17:33:28.934Z,8.98
2022-11-12T17:34:28.460Z,8.87
2022-11-12T17:35:28.378Z,8.94
2022-11-12T17:36:28.300Z,8.91
2022-11-12T17:37:28.219Z,8.90
2022-11-12T17:38:28.137Z,8.90
2022-11-12T17:39:28.057Z,8.85
2022-11-12T17:40:27.977Z,8.84
2022-11-12T17:41:27.896Z,8.84
2022-11-12T17:42:27.815Z,8.82
2022-11-12T17:43:28.021Z,8.87
2022-11-12T17:44:27.655Z,8.70
2022-11-12T17:45:27.575Z,8.68
2022-11-12T17:46:27.490Z,8.73
2022-11-12T17:47:27.412Z,8.65
2022-11-12T17:48:27.446Z,8.66
2022-11-12T17:49:27.248Z,8.68
2022-11-12T17:50:27.170Z,8.69
2022-11-12T17:51:27.088Z,8.68
2022-11-12T17:52:27.008Z,8.69
2022-11-12T17:53:27.342Z,8.68
2022-11-12T17:54:26.845Z,8.68
2022-11-12T17:55:26.764Z,8.68
2022-11-12T17:56:26.694Z,8.61
2022-11-12T17:57:26.604Z,8.61
2022-11-12T17:58:26.524Z,8.50
2022-11-12T17:59:26.439Z,8.51
2022-11-12T18:00:26.361Z,8.42
2022-11-12T18:01:26.300Z,8.43
2022-11-12T18:02:26.402Z,8.42
2022-11-12T18:03:26.593Z,8.42
2022-11-12T18:04:30.610Z,8.42
2022-11-12T18:05:26.005Z,8.40
2022-11-12T18:06:25.875Z,8.42
2022-11-12T18:07:25.792Z,8.36
2022-11-12T18:08:25.711Z,8.39
2022-11-12T18:09:25.632Z,8.43
2022-11-12T18:10:25.550Z,8.47
2022-11-12T18:11:25.468Z,8.55
2022-11-12T18:12:25.435Z,8.48
2022-11-12T18:13:25.699Z,8.51
2022-11-12T18:14:25.224Z,8.48
2022-11-12T18:15:25.141Z,8.58
2022-11-12T18:16:25.062Z,8.55
2022-11-12T18:17:24.979Z,8.57
2022-11-12T18:18:24.900Z,8.44
2022-11-12T18:19:24.816Z,8.44
2022-11-12T18:20:24.851Z,8.40
2022-11-12T18:21:24.653Z,8.40
2022-11-12T18:22:24.573Z,8.42
2022-11-12T18:23:24.700Z,8.29
2022-11-12T18:24:24.409Z,8.36
2022-11-12T18:25:24.328Z,8.30
2022-11-12T18:26:24.248Z,8.36
2022-11-12T18:27:24.164Z,8.33
2022-11-12T18:28:24.085Z,8.33
2022-11-12T18:29:24.004Z,8.30
2022-11-12T18:30:24.121Z,8.30
2022-11-12T18:31:23.842Z,8.32
2022-11-12T18:32:23.761Z,8.39
2022-11-12T18:33:23.679Z,8.36
2022-11-12T18:34:23.595Z,8.21
2022-11-12T18:35:28.550Z,8.18
2022-11-12T18:36:23.552Z,8.11
2022-11-12T18:37:23.351Z,8.01
2022-11-12T18:38:23.273Z,8.04
2022-11-12T18:39:23.190Z,8.04
2022-11-12T18:40:23.109Z,8.04
2022-11-12T18:41:23.027Z,8.03
2022-11-12T18:42:22.946Z,7.93
2022-11-12T18:43:22.863Z,8.07
2022-11-12T18:44:26.014Z,7.96
2022-11-12T18:45:22.702Z,7.97
2022-11-12T18:46:22.620Z,7.91
2022-11-12T18:47:22.537Z,7.85
2022-11-12T18:48:22.458Z,7.85
2022-11-12T18:49:22.375Z,7.85
2022-11-12T18:50:22.293Z,7.83
2022-11-12T18:51:22.210Z,7.85
2022-11-12T18:52:22.244Z,8.03
2022-11-12T18:53:22.047Z,7.88
2022-11-12T18:54:21.967Z,7.90
2022-11-12T18:55:21.882Z,8.00
2022-11-12T18:56:21.806Z,7.91
2022-11-12T18:57:21.724Z,7.83
2022-11-12T18:58:21.642Z,7.99
2022-11-12T18:59:21.556Z,7.94
2022-11-12T19:00:21.476Z,7.86
2022-11-12T19:01:21.480Z,7.85
2022-11-12T19:02:21.310Z,7.72
2022-11-12T19:03:21.333Z,7.79
2022-11-12T19:04:21.152Z,7.64
2022-11-12T19:05:21.065Z,7.56
2022-11-12T19:06:20.987Z,7.53
2022-11-12T19:07:20.984Z,7.48
2022-11-12T19:08:21.030Z,7.42
2022-11-12T19:09:20.744Z,7.53
2022-11-12T19:10:20.655Z,7.56
2022-11-12T19:11:20.772Z,7.56
2022-11-12T19:12:20.492Z,7.56
2022-11-12T19:13:20.411Z,7.64
2022-11-12T19:14:20.354Z,7.64
2022-11-12T19:15:25.550Z,7.62
2022-11-12T19:16:20.191Z,7.55
2022-11-12T19:17:20.087Z,7.63
2022-11-12T19:18:19.999Z,7.59
2022-11-12T19:19:19.918Z,7.37
2022-11-12T19:20:19.840Z,7.45
2022-11-12T19:21:19.752Z,7.37
2022-11-12T19:22:19.672Z,7.38
2022-11-12T19:23:19.588Z,7.30
2022-11-12T19:24:19.620Z,7.21
2022-11-12T19:25:19.438Z,7.17
2022-11-12T19:26:19.340Z,7.16
2022-11-12T19:27:19.258Z,7.26
2022-11-12T19:28:19.178Z,7.23
2022-11-12T19:29:19.102Z,7.29
2022-11-12T19:30:19.024Z,7.35
2022-11-12T19:31:18.929Z,7.35
2022-11-12T19:32:18.847Z,7.38
2022-11-12T19:33:18.764Z,7.35
2022-11-12T19:34:18.683Z,7.37
2022-11-12T19:35:18.597Z,7.24
2022-11-12T19:36:18.519Z,7.26
2022-11-12T19:37:33.007Z,7.26
2022-11-12T19:38:18.353Z,7.31
2022-11-12T19:39:18.270Z,7.24
2022-11-12T19:40:18.305Z,7.31
2022-11-12T19:41:20.089Z,7.23
2022-11-12T19:42:18.027Z,7.24
2022-11-12T19:43:17.939Z,7.16
2022-11-12T19:44:17.861Z,7.30
2022-11-12T19:45:17.777Z,7.21
2022-11-12T19:46:17.693Z,7.24
2022-11-12T19:47:17.659Z,7.30
2022-11-12T19:48:17.529Z,7.21
2022-11-12T19:49:17.446Z,7.24
2022-11-12T19:50:22.150Z,7.21
2022-11-12T19:51:17.280Z,7.11
2022-11-12T19:52:17.199Z,7.21
2022-11-12T19:53:17.118Z,7.09
2022-11-12T19:54:17.084Z,7.11
2022-11-12T19:55:16.953Z,7.02
2022-11-12T19:56:17.225Z,7.03
2022-11-12T19:57:16.785Z,6.90
2022-11-12T19:58:16.705Z,6.98
2022-11-12T19:59:16.622Z,6.90
2022-11-12T20:00:16.539Z,6.94
2022-11-12T20:01:16.545Z,6.98
2022-11-12T20:02:16.373Z,6.94
2022-11-12T20:03:16.292Z,6.90
2022-11-12T20:04:20.185Z,6.88
2022-11-12T20:05:16.127Z,6.90
2022-11-12T20:06:16.046Z,6.81
2022-11-12T20:07:16.007Z,6.80
2022-11-12T20:08:15.882Z,6.83
2022-11-12T20:09:15.796Z,6.87
2022-11-12T20:10:15.762Z,6.96
2022-11-12T20:11:15.631Z,6.86
2022-11-12T20:12:15.659Z,6.83
2022-11-12T20:13:15.466Z,6.86
2022-11-12T20:14:15.381Z,6.86
2022-11-12T20:15:15.298Z,6.91
2022-11-12T20:16:16.738Z,6.83
2022-11-12T20:17:15.135Z,6.84
2022-11-12T20:18:15.052Z,6.78
2022-11-12T20:19:14.971Z,6.73
2022-11-12T20:20:14.886Z,6.72
2022-11-12T20:21:14.803Z,6.66
2022-11-12T20:22:14.723Z,6.66
2022-11-12T20:23:14.642Z,6.63
2022-11-12T20:24:14.556Z,6.55
2022-11-12T20:25:14.672Z,6.50
2022-11-12T20:26:14.391Z,6.41
2022-11-12T20:27:14.309Z,6.41
2022-11-12T20:28:14.337Z,6.32
2022-11-12T20:29:14.146Z,6.33
2022-11-12T20:30:14.059Z,6.17
2022-11-12T20:31:13.975Z,6.11
2022-11-12T20:32:13.890Z,6.08
2022-11-12T20:33:13.810Z,6.06
2022-11-12T20:34:13.725Z,5.95
2022-11-12T20:35:19.280Z,5.90
2022-11-12T20:36:13.558Z,5.81
2022-11-12T20:37:13.476Z,5.86
2022-11-12T20:38:13.391Z,5.77
2022-11-12T20:39:13.310Z,5.70
2022-11-12T20:40:13.428Z,5.67
2022-11-12T20:41:13.144Z,5.63
2022-11-12T20:42:13.057Z,5.63
2022-11-12T20:43:12.976Z,5.65
2022-11-12T20:44:13.007Z,5.68
2022-11-12T20:45:12.809Z,5.72
2022-11-12T20:46:12.728Z,5.67
2022-11-12T20:47:12.647Z,5.74
2022-11-12T20:48:12.557Z,5.78
2022-11-12T20:49:12.476Z,5.71
2022-11-12T20:50:12.392Z,5.78
2022-11-12T20:51:26.854Z,5.72
2022-11-12T20:52:12.224Z,5.71
2022-11-12T20:53:12.142Z,5.72
2022-11-12T20:54:12.057Z,5.72
2022-11-12T20:55:11.976Z,5.75
2022-11-12T20:56:11.890Z,5.71
2022-11-12T20:57:11.806Z,5.62
2022-11-12T20:58:11.721Z,5.71
2022-11-12T20:59:11.639Z,5.63
2022-11-12T21:00:13.913Z,5.77
2022-11-12T21:01:11.539Z,5.59
2022-11-12T21:02:11.386Z,5.65
2022-11-12T21:03:11.304Z,5.60
2022-11-12T21:04:11.221Z,5.70
2022-11-12T21:05:11.135Z,5.74
2022-11-12T21:06:11.050Z,5.65
2022-11-12T21:07:11.025Z,5.74
2022-11-12T21:08:10.883Z,5.70
2022-11-12T21:09:10.802Z,5.63
2022-11-12T21:10:10.716Z,5.77
2022-11-12T21:11:10.633Z,5.71
2022-11-12T21:12:10.550Z,5.74
2022-11-12T21:13:10.470Z,5.68
2022-11-12T21:14:10.381Z,5.72
2022-11-12T21:15:10.297Z,5.63
2022-11-12T21:16:10.578Z,5.65
2022-11-12T21:17:10.132Z,5.75
2022-11-12T21:18:10.046Z,5.75
2022-11-12T21:19:09.961Z,5.62
2022-11-12T21:20:10.130Z,5.75
2022-11-12T21:21:09.846Z,5.68
2022-11-12T21:22:09.709Z,5.65
2022-11-12T21:23:09.626Z,5.62
2022-11-12T21:24:09.542Z,5.65
2022-11-12T21:25:09.462Z,5.54
2022-11-12T21:26:09.377Z,5.57
2022-11-12T21:27:09.289Z,5.57
2022-11-12T21:28:09.207Z,5.52
2022-11-12T21:29:09.124Z,5.54
2022-11-12T21:30:09.040Z,5.54
2022-11-12T21:31:08.954Z,5.56
2022-11-12T21:32:08.987Z,5.53
2022-11-12T21:33:08.787Z,5.68
2022-11-12T21:34:08.700Z,5.54
2022-11-12T21:35:08.619Z,5.54
2022-11-12T21:36:13.181Z,5.56
2022-11-12T21:37:08.452Z,5.53
2022-11-12T21:38:08.366Z,5.50
2022-11-12T21:39:08.282Z,5.52
2022-11-12T21:40:08.198Z,5.53
2022-11-12T21:41:08.118Z,5.56
2022-11-12T21:42:08.030Z,5.49
2022-11-12T21:43:07.957Z,5.42
2022-11-12T21:44:07.862Z,5.42
2022-11-12T21:45:07.780Z,5.35
2022-11-12T21:46:07.695Z,5.36
2022-11-12T21:47:07.612Z,5.31
2022-11-12T21:48:07.642Z,5.21
2022-11-12T21:49:07.448Z,5.26
2022-11-12T21:50:07.358Z,5.20
2022-11-12T21:51:07.275Z,5.21
2022-11-12T21:52:07.193Z,5.17
2022-11-12T21:53:07.108Z,5.21
2022-11-12T21:54:07.022Z,5.23
2022-11-12T21:55:06.941Z,5.17
2022-11-12T21:56:06.854Z,5.18
2022-11-12T21:57:06.771Z,5.14
2022-11-12T21:58:06.685Z,5.06
2022-11-12T21:59:06.602Z,5.06
2022-11-12T22:00:34.590Z,5.00
2022-11-12T22:01:06.434Z,4.92
2022-11-12T22:02:06.387Z,4.84
2022-11-12T22:03:06.261Z,4.84
2022-11-12T22:04:06.294Z,4.74
2022-11-12T22:05:06.096Z,4.66
2022-11-12T22:06:06.010Z,4.61
2022-11-12T22:07:06.063Z,4.62
2022-11-12T22:08:05.839Z,4.58
2022-11-12T22:09:05.917Z,4.64
2022-11-12T22:10:05.670Z,4.61
2022-11-12T22:11:05.586Z,4.59
2022-11-12T22:12:05.500Z,4.54
2022-11-12T22:13:25.900Z,4.54
2022-11-12T22:14:05.331Z,4.50
2022-11-12T22:15:05.248Z,4.48
2022-11-12T22:16:05.166Z,4.48
2022-11-12T22:17:05.080Z,4.56
2022-11-12T22:18:04.994Z,4.50
2022-11-12T22:19:04.912Z,4.50
2022-11-12T22:20:04.940Z,4.47
2022-11-12T22:21:04.742Z,4.48
2022-11-12T22:22:04.653Z,4.48
2022-11-12T22:23:04.567Z,4.52
2022-11-12T22:24:04.582Z,4.48
2022-11-12T22:25:04.401Z,4.50
2022-11-12T22:26:04.313Z,4.48
2022-11-12T22:27:05.705Z,4.52
2022-11-12T22:28:04.145Z,4.55
2022-11-12T22:29:04.311Z,4.56
2022-11-12T22:30:03.981Z,4.46
2022-11-12T22:31:03.893Z,4.47
2022-11-12T22:32:03.853Z,4.34
2022-11-12T22:33:03.721Z,4.30
2022-11-12T22:34:03.635Z,4.34
2022-11-12T22:35:03.552Z,4.38
2022-11-12T22:36:03.580Z,4.26
2022-11-12T22:37:03.385Z,4.41
2022-11-12T22:38:03.302Z,4.36
2022-11-12T22:39:03.214Z,4.28
2022-11-12T22:40:03.132Z,4.37
2022-11-12T22:41:03.046Z,4.25
2022-11-12T22:42:02.955Z,4.28
2022-11-12T22:43:02.885Z,4.32
2022-11-12T22:44:02.786Z,4.34
2022-11-12T22:45:02.704Z,4.23
2022-11-12T22:46:02.616Z,4.26
2022-11-12T22:47:02.535Z,4.20
2022-11-12T22:48:02.445Z,4.20
2022-11-12T22:49:02.362Z,4.28
2022-11-12T22:50:02.291Z,4.23
2022-11-12T22:51:02.246Z,4.18
2022-11-12T22:52:02.216Z,4.23
2022-11-12T22:53:02.022Z,4.15
2022-11-12T22:54:01.934Z,4.19
2022-11-12T22:55:01.851Z,4.20
2022-11-12T22:56:01.764Z,4.18
2022-11-12T22:57:01.680Z,4.20
2022-11-12T22:58:01.592Z,4.18
2022-11-12T22:59:01.509Z,4.22
2022-11-12T23:00:01.422Z,4.16
2022-11-12T23:01:01.394Z,4.10
2022-11-12T23:02:01.252Z,4.15
2022-11-12T23:03:01.167Z,4.16
2022-11-12T23:04:01.082Z,4.12
2022-11-12T23:05:00.997Z,4.04
2022-11-12T23:06:00.916Z,4.19
2022-11-12T23:07:00.897Z,4.18
2022-11-12T23:08:00.860Z,4.16
2022-11-12T23:09:00.659Z,4.05
2022-11-12T23:10:00.618Z,4.12
2022-11-12T23:11:00.486Z,4.05
2022-11-12T23:12:00.400Z,4.04
2022-11-12T23:13:00.322Z,4.02
2022-11-12T23:14:00.235Z,4.04
2022-11-12T23:15:00.144Z,4.00
2022-11-12T23:16:00.064Z,3.97
2022-11-12T23:16:59.974Z,3.90
2022-11-12T23:17:59.889Z,3.87
2022-11-12T23:18:59.810Z,3.84
2022-11-12T23:19:59.717Z,3.94
2022-11-12T23:20:59.630Z,3.94
2022-11-12T23:22:01.865Z,3.84
2022-11-12T23:22:59.459Z,3.84
2022-11-12T23:23:59.489Z,3.87
2022-11-12T23:24:59.290Z,3.82
2022-11-12T23:25:59.203Z,3.80
2022-11-12T23:26:59.145Z,3.66
2022-11-12T23:27:59.032Z,3.84
2022-11-12T23:28:58.946Z,3.83
2022-11-12T23:29:58.863Z,3.80
2022-11-12T23:30:58.779Z,3.79
2022-11-12T23:31:58.688Z,3.74
2022-11-12T23:32:58.603Z,3.71
2022-11-12T23:33:58.518Z,3.69
2022-11-12T23:34:58.435Z,3.68
2022-11-12T23:35:58.349Z,3.68
2022-11-12T23:36:58.263Z,3.61
2022-11-12T23:37:58.426Z,3.62
2022-11-12T23:38:58.139Z,3.64
2022-11-12T23:39:58.115Z,3.62
2022-11-12T23:40:57.921Z,3.62
2022-11-12T23:41:57.831Z,3.62
2022-11-12T23:42:57.750Z,3.62
2022-11-12T23:43:57.658Z,3.65
2022-11-12T23:44:57.677Z,3.61
2022-11-12T23:45:57.490Z,3.64
2022-11-12T23:46:57.403Z,3.57
2022-11-12T23:47:57.322Z,3.54
2022-11-12T23:48:57.231Z,3.56
2022-11-12T23:49:57.146Z,3.54
2022-11-12T23:50:57.165Z,3.56
2022-11-12T23:51:56.979Z,3.54
2022-11-12T23:52:56.888Z,3.51
2022-11-12T23:53:56.903Z,3.59
2022-11-12T23:54:56.718Z,3.61
2022-11-12T23:55:56.745Z,3.62
2022-11-12T23:56:56.545Z,3.56
2022-11-12T23:57:56.558Z,3.59
2022-11-12T23:58:56.373Z,3.62
2022-11-12T23:59:56.287Z,3.59
